Memorial Field
KHOT : now visible

Airfield :











YOU CAN JOIN US ON...

 
LOGIN :

Register | Disclaimer

   EN    FR    IT 

 









Legend :    VFR   Marginal VFR   IFR   Intensive IFR   Very Intensive IFR
Visi :
Ceiling :
>= 8 km
>= 3000ft
5 to 8 km
1000 to 3000 ft
1500m to 5 km
500 to 1000 ft
800 to 1500m
200 to 500 ft
< 800m
< 200 ft
Symbols :   Thunderstorms  Fog  Heavy snow  Heavy precipitations  Wind > 20 kt






- Airport Elevation : 540 ft
- IATA code : HOT


KHOT - Memorial Field

CURRENT METAR :
  • 171121Z AUTO 00000KT 2SM BR BKN013 OVC020 19/18 A2996 RMK AO2 T01940183 $

EXPIRED METARs :
  • 171108Z AUTO 00000KT 1/2SM FG BKN013 OVC021 18/18 A2995 RMK AO2 T01830178 $
  • 171100Z AUTO 00000KT 1/2SM FG SCT013 BKN021 19/18 A2995 RMK AO2 T01890183 $
  • 171047Z AUTO 00000KT 1 3/4SM BR SCT013 BKN021 19/18 A2995 RMK AO2 $
  • 170953Z AUTO 00000KT 6SM BR BKN013 OVC024 21/19 A2993 RMK AO2 SLP131 T02060189 $
  • 170935Z AUTO 29003KT 6SM BR OVC014 21/19 A2994 RMK AO2 T02060189 $
  • 170853Z AUTO 25004KT 7SM OVC016 21/19 A2993 RMK AO2 SLP127 T02110194 53006 $
  • 170753Z AUTO 23005KT 7SM BKN021 22/19 A2991 RMK AO2 SLP120 T02170194 $
  • 170653Z AUTO 22007KT 7SM CLR 22/20 A2991 RMK AO2 SLP123 T02170200 $

TAF KHOT
Valid from the 17 at 12:00 until the 18 at 12:00 UTC


171120Z 1712/1812 VRB06KT P6SM SCT015 OVC040
TEMPO 1712/1716 1SM BR BKN015
FM171600 22006KT P6SM OVC020
FM171900 17006KT P6SM BKN035 BKN250
KZME FIR / North America



MET'MAP, your aeronautical weather chart ! - Copyright ORBIFLY December 2007 - Disclaimer

ORBIFLY MET'MAP TEAM :

Programming & Development : Alexandra Zaïnal
Original concept : Baudouin d'Aumeries
Technical & hardware support : Manuel Goepfert
Assistance : Marc-Olivier Méhu




SOURCES & CREDITS :

   NOAA       Earth
Advisory